createdAt,value
2023-01-07T00:06:09.391Z,43.5
2023-01-07T00:37:11.352Z,43.5
2023-01-07T01:07:13.177Z,44
2023-01-07T01:37:15.110Z,42.9
2023-01-07T02:07:16.960Z,43.5
2023-01-07T02:37:18.898Z,42.9
2023-01-07T03:13:21.074Z,43.5
2023-01-07T03:45:23.033Z,42.9
2023-01-07T04:21:25.220Z,43.5
2023-01-07T04:51:27.008Z,41.9
2023-01-07T05:22:28.782Z,42.9
2023-01-07T05:55:30.815Z,43.5
2023-01-07T06:28:33.216Z,42.9
2023-01-07T06:58:34.951Z,42.9
2023-01-07T07:28:36.778Z,42.9
2023-01-07T07:58:38.569Z,43.5
2023-01-07T08:28:40.494Z,45.6
2023-01-07T08:58:42.368Z,44
2023-01-07T09:29:44.329Z,44.5
2023-01-07T09:59:46.136Z,42.4
2023-01-07T10:30:48.159Z,42.9
2023-01-07T11:00:49.909Z,42.4
2023-01-07T11:31:51.746Z,43.5
2023-01-07T12:01:53.837Z,43.5
2023-01-07T12:31:55.635Z,42.9
2023-01-07T13:01:57.612Z,42.9
2023-01-07T13:31:59.567Z,41.9
2023-01-07T14:04:01.649Z,43.5
2023-01-07T14:34:03.885Z,40.8
2023-01-07T15:04:05.900Z,40.8
2023-01-07T15:34:07.633Z,39.2
2023-01-07T16:06:09.775Z,37.6
2023-01-07T16:38:11.731Z,37
2023-01-07T17:08:13.839Z,37
2023-01-07T17:40:15.696Z,37
2023-01-07T18:10:17.830Z,35.4
2023-01-07T18:43:19.859Z,35.9
2023-01-07T19:13:21.782Z,35.9
2023-01-07T19:43:23.675Z,35.9
2023-01-07T20:14:25.660Z,35.9
2023-01-07T20:44:27.562Z,35.9
2023-01-07T21:14:29.628Z,34.3
2023-01-07T21:45:31.586Z,34.9
2023-01-07T22:16:33.665Z,35.4
2023-01-07T22:46:35.909Z,34.9
2023-01-07T23:18:38.233Z,34.3
2023-01-07T23:48:40.143Z,36.5
